Time,TemperatureF,DewpointF,PressureIn,WindDirection,WindDirectionDegrees,WindSpeedMPH,WindSpeedGustMPH,Humidity,HourlyPrecipIn,Conditions,Clouds,dailyrainin,SoftwareType,DateUTC
2013-04-07 00:02:00,28.6,3.1,30.50,SW,227,0.0,0.0,33,0.00,CLR,CLR,0.00,WeatherDisplay:10.34,2013-04-07 04:02:00,
2013-04-07 00:03:00,28.6,3.1,30.50,SW,227,0.0,0.0,33,0.00,CLR,CLR,0.00,WeatherDisplay:10.34,2013-04-07 04:03:00,
2013-04-07 00:04:00,28.6,3.1,30.50,SW,227,0.0,0.0,33,0.00,CLR,CLR,0.00,WeatherDisplay:10.34,2013-04-07 04:04:00,
2013-04-07 00:07:00,28.6,3.1,30.50,SW,227,0.0,0.0,33,0.00,CLR,CLR,0.00,WeatherDisplay:10.34,2013-04-07 04:07:00,
2013-04-07 00:12:00,28.4,2.2,30.50,SW,227,0.0,0.0,32,0.00,CLR,CLR,0.00,WeatherDisplay:10.34,2013-04-07 04:12:00,
2013-04-07 00:17:00,28.4,2.2,30.50,SW,227,0.0,0.0,32,0.00,CLR,CLR,0.00,WeatherDisplay:10.34,2013-04-07 04:17:00,
2013-04-07 00:22:00,28.2,2.1,30.50,SW,227,0.0,0.0,32,0.00,CLR,CLR,0.00,WeatherDisplay:10.34,2013-04-07 04:22:00,
2013-04-07 00:27:00,28.0,1.9,30.50,SW,227,0.0,0.0,32,0.00,CLR,CLR,0.00,WeatherDisplay:10.34,2013-04-07 04:27:00,
2013-04-07 00:32:00,28.0,1.9,30.50,SW,227,0.0,0.0,32,0.00,CLR,CLR,0.00,WeatherDisplay:10.34,2013-04-07 04:32:00,
2013-04-07 00:37:00,28.0,1.9,30.50,SW,227,0.0,0.0,32,0.00,CLR,CLR,0.00,WeatherDisplay:10.34,2013-04-07 04:37:00,
2013-04-07 00:42:00,28.0,1.9,30.50,SW,227,0.0,0.0,32,0.00,CLR,CLR,0.00,WeatherDisplay:10.34,2013-04-07 04:42:00,
2013-04-07 00:47:00,28.0,1.9,30.50,SW,227,0.0,0.0,32,0.00,CLR,CLR,0.00,WeatherDisplay:10.34,2013-04-07 04:47:00,
2013-04-07 00:52:00,28.2,2.1,30.50,SW,227,0.0,0.0,32,0.00,CLR,CLR,0.00,WeatherDisplay:10.34,2013-04-07 04:52:00,
2013-04-07 00:57:00,28.2,2.7,30.50,SW,227,0.0,0.0,33,0.00,CLR,CLR,0.00,WeatherDisplay:10.34,2013-04-07 04:57:00,
2013-04-07 01:02:00,28.4,2.9,30.50,SW,227,0.0,0.0,33,0.00,OVC,OVC,0.00,WeatherDisplay:10.34,2013-04-07 05:02:00,
2013-04-07 01:07:00,28.6,3.1,30.50,SW,227,0.0,0.0,33,0.00,OVC,OVC,0.00,WeatherDisplay:10.34,2013-04-07 05:07:00,
2013-04-07 01:12:00,28.6,3.1,30.50,SW,227,0.0,0.0,33,0.00,OVC,OVC,0.00,WeatherDisplay:10.34,2013-04-07 05:12:00,
2013-04-07 01:17:00,28.8,3.2,30.49,SW,227,0.0,0.0,33,0.00,OVC,OVC,0.00,WeatherDisplay:10.34,2013-04-07 05:17:00,
2013-04-07 01:22:00,28.9,4.0,30.49,SW,227,0.0,0.0,34,0.00,OVC,OVC,0.00,WeatherDisplay:10.34,2013-04-07 05:22:00,
2013-04-07 01:27:00,29.1,4.2,30.49,SW,227,0.0,0.0,34,0.00,OVC,OVC,0.00,WeatherDisplay:10.34,2013-04-07 05:27:00,
2013-04-07 01:32:00,29.3,4.4,30.49,SW,227,0.0,0.0,34,0.00,OVC,OVC,0.00,WeatherDisplay:10.34,2013-04-07 05:32:00,
2013-04-07 01:37:00,29.3,3.7,30.49,SW,227,0.0,2.0,33,0.00,OVC,OVC,0.00,WeatherDisplay:10.34,2013-04-07 05:37:00,
2013-04-07 01:42:00,29.5,3.9,30.49,SW,227,0.0,0.0,33,0.00,OVC,OVC,0.00,WeatherDisplay:10.34,2013-04-07 05:42:00,
2013-04-07 01:47:00,29.5,3.9,30.49,SW,227,0.0,0.0,33,0.00,OVC,OVC,0.00,WeatherDisplay:10.34,2013-04-07 05:47:00,
2013-04-07 01:52:00,29.7,4.0,30.49,SW,227,0.0,0.0,33,0.00,OVC,OVC,0.00,WeatherDisplay:10.34,2013-04-07 05:52:00,
2013-04-07 01:57:00,29.7,4.0,30.49,SW,227,0.0,0.0,33,0.00,OVC,OVC,0.00,WeatherDisplay:10.34,2013-04-07 05:57:00,
2013-04-07 02:02:00,29.7,4.0,30.49,SW,227,0.0,0.0,33,0.00,OVC,OVC,0.00,WeatherDisplay:10.34,2013-04-07 06:02:00,
2013-04-07 02:07:00,29.7,4.0,30.49,SW,227,0.0,0.0,33,0.00,OVC,OVC,0.00,WeatherDisplay:10.34,2013-04-07 06:07:00,
2013-04-07 02:12:00,29.7,4.0,30.49,SW,227,0.0,0.0,33,0.00,OVC,OVC,0.00,WeatherDisplay:10.34,2013-04-07 06:12:00,
2013-04-07 02:17:00,29.7,4.0,30.49,SW,227,0.0,0.0,33,0.00,OVC,OVC,0.00,WeatherDisplay:10.34,2013-04-07 06:17:00,
2013-04-07 02:22:00,29.7,4.0,30.49,SW,227,0.0,0.0,33,0.00,OVC,OVC,0.00,WeatherDisplay:10.34,2013-04-07 06:22:00,
2013-04-07 02:27:00,29.5,3.2,30.49,SW,227,0.0,0.0,32,0.00,OVC,OVC,0.00,WeatherDisplay:10.34,2013-04-07 06:27:00,
2013-04-07 02:32:00,29.5,3.2,30.46,SW,227,0.0,0.0,32,0.00,OVC,OVC,0.00,WeatherDisplay:10.34,2013-04-07 06:32:00,
2013-04-07 02:38:00,29.3,3.0,30.46,SW,227,0.0,0.0,32,0.00,OVC,OVC,0.00,WeatherDisplay:10.34,2013-04-07 06:38:00,
2013-04-07 02:43:00,29.3,3.7,30.46,SW,227,0.0,0.0,33,0.00,OVC,OVC,0.00,WeatherDisplay:10.34,2013-04-07 06:43:00,
2013-04-07 02:48:00,29.1,3.5,30.46,SW,227,0.0,0.0,33,0.00,OVC,OVC,0.00,WeatherDisplay:10.34,2013-04-07 06:48:00,
2013-04-07 02:53:00,29.1,3.5,30.46,SW,227,0.0,0.0,33,0.00,OVC,OVC,0.00,WeatherDisplay:10.34,2013-04-07 06:53:00,
2013-04-07 02:58:00,28.9,3.4,30.46,SW,227,0.0,0.0,33,0.00,OVC,OVC,0.00,WeatherDisplay:10.34,2013-04-07 06:58:00,
2013-04-07 03:04:00,28.8,3.2,30.46,SW,227,0.0,0.0,33,0.00,BKN,BKN,0.00,WeatherDisplay:10.34,2013-04-07 07:04:00,
2013-04-07 03:12:00,28.8,3.2,30.46,SW,227,0.0,0.0,33,0.00,BKN,BKN,0.00,WeatherDisplay:10.34,2013-04-07 07:12:00,
2013-04-07 03:17:00,28.6,3.1,30.46,SW,227,0.0,0.0,33,0.00,BKN,BKN,0.00,WeatherDisplay:10.34,2013-04-07 07:17:00,
2013-04-07 03:22:00,28.4,2.9,30.46,SW,227,0.0,0.0,33,0.00,BKN,BKN,0.00,WeatherDisplay:10.34,2013-04-07 07:22:00,
2013-04-07 03:27:00,28.0,2.6,30.46,SW,227,0.0,0.0,33,0.00,BKN,BKN,0.00,WeatherDisplay:10.34,2013-04-07 07:27:00,
2013-04-07 03:32:00,28.2,2.7,30.46,SW,227,0.0,0.0,33,0.00,BKN,BKN,0.00,WeatherDisplay:10.34,2013-04-07 07:32:00,
2013-04-07 03:38:00,28.0,2.6,30.46,SW,227,0.0,0.0,33,0.00,BKN,BKN,0.00,WeatherDisplay:10.34,2013-04-07 07:38:00,
2013-04-07 03:43:00,28.0,2.6,30.46,SW,227,0.0,0.0,33,0.00,BKN,BKN,0.00,WeatherDisplay:10.34,2013-04-07 07:43:00,
2013-04-07 03:48:00,27.9,2.4,30.46,SW,227,0.0,0.0,33,0.00,BKN,BKN,0.00,WeatherDisplay:10.34,2013-04-07 07:48:00,
2013-04-07 03:53:00,27.9,2.4,30.46,SW,227,0.0,0.0,33,0.00,BKN,BKN,0.00,WeatherDisplay:10.34,2013-04-07 07:53:00,
2013-04-07 03:58:00,27.9,2.4,30.46,SW,227,0.0,0.0,33,0.00,BKN,BKN,0.00,WeatherDisplay:10.34,2013-04-07 07:58:00,
2013-04-07 04:03:00,27.9,2.4,30.46,SW,227,0.0,0.0,33,0.00,BKN,BKN,0.00,WeatherDisplay:10.34,2013-04-07 08:03:00,
2013-04-07 04:08:00,27.7,2.3,30.46,SW,227,0.0,0.0,33,0.00,BKN,BKN,0.00,WeatherDisplay:10.34,2013-04-07 08:08:00,
2013-04-07 04:13:00,27.7,2.3,30.46,SW,227,0.0,0.0,33,0.00,BKN,BKN,0.00,WeatherDisplay:10.34,2013-04-07 08:13:00,
2013-04-07 04:18:00,27.7,2.3,30.46,SW,227,0.0,0.0,33,0.00,BKN,BKN,0.00,WeatherDisplay:10.34,2013-04-07 08:18:00,
2013-04-07 04:23:00,27.7,2.3,30.46,SW,227,0.0,0.0,33,0.00,BKN,BKN,0.00,WeatherDisplay:10.34,2013-04-07 08:23:00,
2013-04-07 04:28:00,27.9,2.4,30.46,SW,227,0.0,0.0,33,0.00,BKN,BKN,0.00,WeatherDisplay:10.34,2013-04-07 08:28:00,
2013-04-07 04:33:00,28.0,2.6,30.46,SW,227,0.0,0.0,33,0.00,BKN,BKN,0.00,WeatherDisplay:10.34,2013-04-07 08:33:00,
2013-04-07 04:39:00,28.0,2.6,30.46,SW,227,0.0,0.0,33,0.00,BKN,BKN,0.00,WeatherDisplay:10.34,2013-04-07 08:39:00,
2013-04-07 04:45:00,28.2,2.7,30.46,SW,227,0.0,0.0,33,0.00,BKN,BKN,0.00,WeatherDisplay:10.34,2013-04-07 08:45:00,
2013-04-07 04:50:00,28.2,2.7,30.46,SW,227,0.0,0.0,33,0.00,BKN,BKN,0.00,WeatherDisplay:10.34,2013-04-07 08:50:00,
2013-04-07 04:57:00,28.0,2.6,30.46,SW,227,0.0,0.0,33,0.00,BKN,BKN,0.00,WeatherDisplay:10.34,2013-04-07 08:57:00,
2013-04-07 05:02:00,28.0,2.6,30.46,SW,227,0.0,0.0,33,0.00,BKN,BKN,0.00,WeatherDisplay:10.34,2013-04-07 09:02:00,
2013-04-07 05:07:00,28.0,2.6,30.46,SW,227,0.0,0.0,33,0.00,BKN,BKN,0.00,WeatherDisplay:10.34,2013-04-07 09:07:00,
2013-04-07 05:13:00,28.0,2.6,30.46,SW,227,0.0,0.0,33,0.00,BKN,BKN,0.00,WeatherDisplay:10.34,2013-04-07 09:13:00,
2013-04-07 05:19:00,28.2,2.7,30.46,SW,227,0.0,0.0,33,0.00,BKN,BKN,0.00,WeatherDisplay:10.34,2013-04-07 09:19:00,
2013-04-07 05:25:00,28.2,2.7,30.46,SW,227,0.0,0.0,33,0.00,BKN,BKN,0.00,WeatherDisplay:10.34,2013-04-07 09:25:00,
2013-04-07 05:30:00,28.4,3.6,30.46,SW,227,0.0,0.0,34,0.00,BKN,BKN,0.00,WeatherDisplay:10.34,2013-04-07 09:30:00,
2013-04-07 05:35:00,28.4,3.6,30.46,SW,227,0.0,0.0,34,0.00,BKN,BKN,0.00,WeatherDisplay:10.34,2013-04-07 09:35:00,
2013-04-07 05:40:00,28.6,3.7,30.46,SW,227,0.0,0.0,34,0.00,BKN,BKN,0.00,WeatherDisplay:10.34,2013-04-07 09:40:00,
2013-04-07 05:45:00,28.8,3.9,30.46,SW,227,0.0,0.0,34,0.00,BKN,BKN,0.00,WeatherDisplay:10.34,2013-04-07 09:45:00,
2013-04-07 05:50:00,28.8,4.5,30.46,SW,227,0.0,0.0,35,0.00,BKN,BKN,0.00,WeatherDisplay:10.34,2013-04-07 09:50:00,
2013-04-07 05:56:00,29.1,4.8,30.46,SW,227,0.0,0.0,35,0.00,BKN,BKN,0.00,WeatherDisplay:10.34,2013-04-07 09:56:00,
2013-04-07 06:01:00,29.3,5.0,30.46,SW,227,0.0,0.0,35,0.00,BKN,BKN,0.00,WeatherDisplay:10.34,2013-04-07 10:01:00,
2013-04-07 06:07:00,29.3,5.0,30.46,SW,227,0.0,0.0,35,0.00,OVC,OVC,0.00,WeatherDisplay:10.34,2013-04-07 10:07:00,
2013-04-07 06:12:00,29.1,4.8,30.46,SW,227,0.0,0.0,35,0.00,OVC,OVC,0.00,WeatherDisplay:10.34,2013-04-07 10:12:00,
2013-04-07 06:18:00,29.1,5.4,30.46,SW,227,0.0,0.0,36,0.00,OVC,OVC,0.00,WeatherDisplay:10.34,2013-04-07 10:18:00,
2013-04-07 06:23:00,29.1,5.4,30.46,SW,227,0.0,0.0,36,0.00,OVC,OVC,0.00,WeatherDisplay:10.34,2013-04-07 10:23:00,
2013-04-07 06:28:00,29.1,6.0,30.46,SW,227,0.0,0.0,37,0.00,OVC,OVC,0.00,WeatherDisplay:10.34,2013-04-07 10:28:00,
2013-04-07 06:33:00,28.8,5.7,30.46,SW,227,0.0,0.0,37,0.00,OVC,OVC,0.00,WeatherDisplay:10.34,2013-04-07 10:33:00,
2013-04-07 06:38:00,28.4,5.4,30.46,SW,227,0.0,0.0,37,0.00,OVC,OVC,0.00,WeatherDisplay:10.34,2013-04-07 10:38:00,
2013-04-07 06:43:00,28.6,5.6,30.46,SW,227,0.0,0.0,37,0.00,OVC,OVC,0.00,WeatherDisplay:10.34,2013-04-07 10:43:00,
2013-04-07 06:49:00,28.6,6.1,30.46,SW,227,0.0,0.0,38,0.00,OVC,OVC,0.00,WeatherDisplay:10.34,2013-04-07 10:49:00,
2013-04-07 06:54:00,28.8,6.3,30.46,SW,227,0.0,0.0,38,0.00,OVC,OVC,0.00,WeatherDisplay:10.34,2013-04-07 10:54:00,
2013-04-07 06:59:00,28.8,6.3,30.46,SW,227,0.0,0.0,38,0.00,OVC,OVC,0.00,WeatherDisplay:10.34,2013-04-07 10:59:00,
2013-04-07 07:04:00,28.8,6.3,30.46,SW,227,0.0,0.0,38,0.00,CLR,CLR,0.00,WeatherDisplay:10.34,2013-04-07 11:04:00,
2013-04-07 07:10:00,28.8,6.3,30.46,SW,227,0.0,0.0,38,0.00,CLR,CLR,0.00,WeatherDisplay:10.34,2013-04-07 11:10:00,
2013-04-07 07:15:00,28.9,6.5,30.46,SW,227,0.0,0.0,38,0.00,CLR,CLR,0.00,WeatherDisplay:10.34,2013-04-07 11:15:00,
2013-04-07 07:20:00,29.1,7.2,30.49,SW,227,0.0,0.0,39,0.00,CLR,CLR,0.00,WeatherDisplay:10.34,2013-04-07 11:20:00,
2013-04-07 07:25:00,29.5,7.0,30.49,SW,227,0.0,0.0,38,0.00,CLR,CLR,0.00,WeatherDisplay:10.34,2013-04-07 11:25:00,
2013-04-07 07:30:00,29.8,7.3,30.49,SW,227,0.0,0.0,38,0.00,CLR,CLR,0.00,WeatherDisplay:10.34,2013-04-07 11:30:00,
2013-04-07 07:35:00,30.4,7.8,30.49,SW,227,0.0,0.0,38,0.00,CLR,CLR,0.00,WeatherDisplay:10.34,2013-04-07 11:35:00,
2013-04-07 07:40:00,30.6,7.9,30.49,SW,227,0.0,0.0,38,0.00,CLR,CLR,0.00,WeatherDisplay:10.34,2013-04-07 11:40:00,
2013-04-07 07:45:00,30.9,7.7,30.49,SW,227,0.0,0.0,37,0.00,CLR,CLR,0.00,WeatherDisplay:10.34,2013-04-07 11:45:00,
2013-04-07 07:50:00,30.9,7.1,30.49,SW,227,0.0,0.0,36,0.00,CLR,CLR,0.00,WeatherDisplay:10.34,2013-04-07 11:50:00,
2013-04-07 07:55:00,31.1,7.2,30.49,SW,227,0.0,0.0,36,0.00,CLR,CLR,0.00,WeatherDisplay:10.34,2013-04-07 11:55:00,
2013-04-07 08:01:00,31.3,7.4,30.49,SW,227,0.0,0.0,36,0.00,OVC,OVC,0.00,WeatherDisplay:10.34,2013-04-07 12:01:00,
2013-04-07 08:07:00,31.5,7.5,30.49,SW,227,0.0,0.0,36,0.00,OVC,OVC,0.00,WeatherDisplay:10.34,2013-04-07 12:07:00,
2013-04-07 08:12:00,31.6,7.7,30.49,SW,227,0.0,0.0,36,0.00,OVC,OVC,0.00,WeatherDisplay:10.34,2013-04-07 12:12:00,
2013-04-07 08:17:00,31.6,7.1,30.49,SW,227,0.0,0.0,35,0.00,OVC,OVC,0.00,WeatherDisplay:10.34,2013-04-07 12:17:00,
2013-04-07 08:22:00,31.6,7.1,30.49,SW,227,0.0,0.0,35,0.00,OVC,OVC,0.00,WeatherDisplay:10.34,2013-04-07 12:22:00,
2013-04-07 08:27:00,32.0,7.4,30.49,SW,227,0.0,0.0,35,0.00,OVC,OVC,0.00,WeatherDisplay:10.34,2013-04-07 12:27:00,
2013-04-07 08:32:00,32.2,7.6,30.46,SW,227,0.0,0.0,35,0.00,OVC,OVC,0.00,WeatherDisplay:10.34,2013-04-07 12:32:00,
2013-04-07 08:38:00,32.2,7.6,30.46,SW,227,0.0,0.0,35,0.00,OVC,OVC,0.00,WeatherDisplay:10.34,2013-04-07 12:38:00,
2013-04-07 08:43:00,32.4,7.7,30.46,SW,227,0.0,0.0,35,0.00,OVC,OVC,0.00,WeatherDisplay:10.34,2013-04-07 12:43:00,
2013-04-07 08:49:00,32.7,8.0,30.46,SW,227,0.0,0.0,35,0.00,OVC,OVC,0.00,WeatherDisplay:10.34,2013-04-07 12:49:00,
2013-04-07 08:54:00,32.9,8.2,30.46,SW,227,0.0,0.0,35,0.00,OVC,OVC,0.00,WeatherDisplay:10.34,2013-04-07 12:54:00,
2013-04-07 08:59:00,32.7,8.0,30.46,SW,227,0.0,0.0,35,0.00,OVC,OVC,0.00,WeatherDisplay:10.34,2013-04-07 12:59:00,
2013-04-07 09:05:00,32.9,7.6,30.46,SW,227,0.0,0.0,34,0.00,SCT,SCT,0.00,WeatherDisplay:10.34,2013-04-07 13:05:00,
2013-04-07 09:11:00,33.3,7.9,30.46,SW,227,3.0,6.0,34,0.00,SCT,SCT,0.00,WeatherDisplay:10.34,2013-04-07 13:11:00,
2013-04-07 09:17:00,34.3,9.5,30.43,SW,229,6.0,12.0,35,0.00,SCT,SCT,0.00,WeatherDisplay:10.34,2013-04-07 13:17:00,
2013-04-07 09:22:00,35.1,8.8,30.43,SSW,201,4.0,7.0,33,0.00,SCT,SCT,0.00,WeatherDisplay:10.34,2013-04-07 13:22:00,
2013-04-07 09:27:00,35.8,9.4,30.43,South,189,5.0,10.0,33,0.00,SCT,SCT,0.00,WeatherDisplay:10.34,2013-04-07 13:27:00,
2013-04-07 09:33:00,36.5,9.4,30.43,SE,146,9.0,22.0,32,0.00,SCT,SCT,0.00,WeatherDisplay:10.34,2013-04-07 13:33:00,
2013-04-07 09:38:00,37.4,10.2,30.43,SW,221,4.0,12.0,32,0.00,SCT,SCT,0.00,WeatherDisplay:10.34,2013-04-07 13:38:00,
2013-04-07 09:43:00,37.8,10.5,30.43,NW,311,0.0,3.0,32,0.00,SCT,SCT,0.00,WeatherDisplay:10.34,2013-04-07 13:43:00,
2013-04-07 09:49:00,38.1,10.1,30.42,WSW,253,6.0,14.0,31,0.00,SCT,SCT,0.00,WeatherDisplay:10.34,2013-04-07 13:49:00,
2013-04-07 09:55:00,38.5,9.7,30.42,South,191,11.0,28.0,30,0.00,SCT,SCT,0.00,WeatherDisplay:10.34,2013-04-07 13:55:00,
2013-04-07 10:00:00,38.5,9.7,30.42,SSE,163,15.0,21.0,30,0.00,SCT,SCT,0.00,WeatherDisplay:10.34,2013-04-07 14:00:00,
2013-04-07 10:05:00,38.5,9.7,30.42,SW,234,13.0,22.0,30,0.00,BKN,BKN,0.00,WeatherDisplay:10.34,2013-04-07 14:05:00,
2013-04-07 10:10:00,38.5,9.7,30.42,SSW,201,9.0,22.0,30,0.00,BKN,BKN,0.00,WeatherDisplay:10.34,2013-04-07 14:10:00,
2013-04-07 10:16:00,38.1,10.1,30.40,SSW,212,6.0,13.0,31,0.00,BKN,BKN,0.00,WeatherDisplay:10.34,2013-04-07 14:16:00,
2013-04-07 10:23:00,38.3,10.3,30.40,West,268,3.0,10.0,31,0.00,BKN,BKN,0.00,WeatherDisplay:10.34,2013-04-07 14:23:00,
2013-04-07 10:28:00,38.7,10.6,30.39,South,189,15.0,21.0,31,0.00,BKN,BKN,0.00,WeatherDisplay:10.34,2013-04-07 14:28:00,
2013-04-07 10:34:00,39.2,11.0,30.39,NNW,341,0.0,10.0,31,0.00,BKN,BKN,0.00,WeatherDisplay:10.34,2013-04-07 14:34:00,
2013-04-07 10:40:00,39.2,10.3,30.39,WSW,240,5.0,8.0,30,0.00,BKN,BKN,0.00,WeatherDisplay:10.34,2013-04-07 14:40:00,
2013-04-07 10:45:00,39.4,10.5,30.39,SSW,194,6.0,6.0,30,0.00,BKN,BKN,0.00,WeatherDisplay:10.34,2013-04-07 14:45:00,
2013-04-07 10:50:00,39.7,11.5,30.36,WSW,256,3.0,5.0,31,0.00,BKN,BKN,0.00,WeatherDisplay:10.34,2013-04-07 14:50:00,
2013-04-07 10:56:00,39.7,10.8,30.36,South,180,5.0,12.0,30,0.00,BKN,BKN,0.00,WeatherDisplay:10.34,2013-04-07 14:56:00,
2013-04-07 11:02:00,39.7,10.8,30.36,SSW,209,4.0,12.0,30,0.00,OVC,OVC,0.00,WeatherDisplay:10.34,2013-04-07 15:02:00,
2013-04-07 11:07:00,39.6,10.6,30.36,WSW,237,6.0,12.0,30,0.00,OVC,OVC,0.00,WeatherDisplay:10.34,2013-04-07 15:07:00,
2013-04-07 11:12:00,39.7,10.8,30.36,WSW,252,10.0,24.0,30,0.00,OVC,OVC,0.00,WeatherDisplay:10.34,2013-04-07 15:12:00,
2013-04-07 11:17:00,39.9,10.9,30.36,WSW,256,19.0,28.0,30,0.00,OVC,OVC,0.00,WeatherDisplay:10.34,2013-04-07 15:17:00,
2013-04-07 11:22:00,40.1,11.1,30.36,SW,226,15.0,25.0,30,0.00,OVC,OVC,0.00,WeatherDisplay:10.34,2013-04-07 15:22:00,
2013-04-07 11:27:00,40.5,10.7,30.36,SW,223,6.0,14.0,29,0.00,OVC,OVC,0.00,WeatherDisplay:10.34,2013-04-07 15:27:00,
2013-04-07 11:32:00,40.8,11.0,30.36,SW,223,7.0,18.0,29,0.00,OVC,OVC,0.00,WeatherDisplay:10.34,2013-04-07 15:32:00,
2013-04-07 11:37:00,41.5,11.6,30.36,SSW,207,9.0,18.0,29,0.00,OVC,OVC,0.00,WeatherDisplay:10.34,2013-04-07 15:37:00,
2013-04-07 11:43:00,42.1,12.1,30.36,North,351,11.0,14.0,29,0.00,OVC,OVC,0.00,WeatherDisplay:10.34,2013-04-07 15:43:00,
2013-04-07 11:49:00,42.4,12.4,30.36,NE,51,6.0,14.0,29,0.00,OVC,OVC,0.00,WeatherDisplay:10.34,2013-04-07 15:49:00,
2013-04-07 11:54:00,42.6,12.5,30.36,SSW,192,4.0,9.0,29,0.00,OVC,OVC,0.00,WeatherDisplay:10.34,2013-04-07 15:54:00,
2013-04-07 12:00:00,42.8,11.9,30.36,WSW,254,4.0,13.0,28,0.00,OVC,OVC,0.00,WeatherDisplay:10.34,2013-04-07 16:00:00,
2013-04-07 12:06:00,43.3,13.2,30.33,West,280,11.0,20.0,29,0.00,BKN,BKN,0.00,WeatherDisplay:10.34,2013-04-07 16:06:00,
2013-04-07 12:12:00,43.3,12.4,30.33,WSW,252,11.0,17.0,28,0.00,BKN,BKN,0.00,WeatherDisplay:10.34,2013-04-07 16:12:00,
2013-04-07 12:17:00,43.0,12.0,30.33,WSW,242,23.0,31.0,28,0.00,BKN,BKN,0.00,WeatherDisplay:10.34,2013-04-07 16:17:00,
2013-04-07 12:22:00,43.0,12.0,30.33,NNW,341,12.0,17.0,28,0.00,BKN,BKN,0.00,WeatherDisplay:10.34,2013-04-07 16:22:00,
2013-04-07 12:27:00,43.2,12.2,30.33,North,7,14.0,30.0,28,0.00,BKN,BKN,0.00,WeatherDisplay:10.34,2013-04-07 16:27:00,
2013-04-07 12:33:00,43.3,12.4,30.33,West,262,11.0,26.0,28,0.00,BKN,BKN,0.00,WeatherDisplay:10.34,2013-04-07 16:33:00,
2013-04-07 12:38:00,43.5,12.5,30.33,WSW,257,10.0,28.0,28,0.00,BKN,BKN,0.00,WeatherDisplay:10.34,2013-04-07 16:38:00,
2013-04-07 12:43:00,43.5,12.5,30.33,SSW,206,5.0,22.0,28,0.00,BKN,BKN,0.00,WeatherDisplay:10.34,2013-04-07 16:43:00,
2013-04-07 12:48:00,43.7,12.7,30.30,NNW,330,13.0,18.0,28,0.00,BKN,BKN,0.00,WeatherDisplay:10.34,2013-04-07 16:48:00,
2013-04-07 12:54:00,43.7,12.7,30.30,SW,227,8.0,10.0,28,0.00,BKN,BKN,0.00,WeatherDisplay:10.34,2013-04-07 16:54:00,
2013-04-07 12:59:00,43.9,12.8,30.30,South,178,13.0,20.0,28,0.00,BKN,BKN,0.00,WeatherDisplay:10.34,2013-04-07 16:59:00,
2013-04-07 13:06:00,44.1,13.0,30.30,SW,236,11.0,14.0,28,0.00,BKN,BKN,0.00,WeatherDisplay:10.34,2013-04-07 17:06:00,
2013-04-07 13:11:00,44.4,13.3,30.30,NNW,341,13.0,23.0,28,0.00,BKN,BKN,0.00,WeatherDisplay:10.34,2013-04-07 17:11:00,
2013-04-07 13:17:00,44.8,13.6,30.29,SW,220,5.0,12.0,28,0.00,BKN,BKN,0.00,WeatherDisplay:10.34,2013-04-07 17:17:00,
2013-04-07 13:22:00,45.0,13.8,30.29,South,177,6.0,15.0,28,0.00,BKN,BKN,0.00,WeatherDisplay:10.34,2013-04-07 17:22:00,
2013-04-07 13:27:00,44.8,13.6,30.29,West,266,7.0,24.0,28,0.00,BKN,BKN,0.00,WeatherDisplay:10.34,2013-04-07 17:27:00,
2013-04-07 13:33:00,44.6,13.5,30.26,SSW,208,8.0,12.0,28,0.00,BKN,BKN,0.00,WeatherDisplay:10.34,2013-04-07 17:33:00,
2013-04-07 13:40:00,44.4,13.3,30.26,SSW,195,13.0,35.0,28,0.00,BKN,BKN,0.00,WeatherDisplay:10.34,2013-04-07 17:40:00,
2013-04-07 13:46:00,44.4,13.3,30.26,NW,309,7.0,12.0,28,0.00,BKN,BKN,0.00,WeatherDisplay:10.34,2013-04-07 17:46:00,
2013-04-07 13:52:00,44.6,13.5,30.26,SSW,202,14.0,28.0,28,0.00,BKN,BKN,0.00,WeatherDisplay:10.34,2013-04-07 17:52:00,
2013-04-07 13:57:00,44.6,13.5,30.26,South,189,4.0,14.0,28,0.00,BKN,BKN,0.00,WeatherDisplay:10.34,2013-04-07 17:57:00,
2013-04-07 14:02:00,45.0,13.8,30.26,North,6,3.0,10.0,28,0.00,BKN,BKN,0.00,WeatherDisplay:10.34,2013-04-07 18:02:00,
2013-04-07 14:07:00,45.3,14.1,30.26,SW,236,8.0,14.0,28,0.00,BKN,BKN,0.00,WeatherDisplay:10.34,2013-04-07 18:07:00,
2013-04-07 14:12:00,45.7,14.4,30.26,ESE,106,5.0,7.0,28,0.00,BKN,BKN,0.00,WeatherDisplay:10.34,2013-04-07 18:12:00,
2013-04-07 14:17:00,46.0,14.7,30.23,SSW,192,4.0,12.0,28,0.00,BKN,BKN,0.00,WeatherDisplay:10.34,2013-04-07 18:17:00,
2013-04-07 14:23:00,46.4,15.0,30.23,WSW,250,5.0,10.0,28,0.00,BKN,BKN,0.00,WeatherDisplay:10.34,2013-04-07 18:23:00,
2013-04-07 14:28:00,46.4,15.0,30.23,SSW,209,3.0,6.0,28,0.00,BKN,BKN,0.00,WeatherDisplay:10.34,2013-04-07 18:28:00,
2013-04-07 14:33:00,46.6,15.2,30.23,WSW,251,5.0,10.0,28,0.00,BKN,BKN,0.00,WeatherDisplay:10.34,2013-04-07 18:33:00,
2013-04-07 14:38:00,47.1,15.6,30.23,SW,231,5.0,7.0,28,0.00,BKN,BKN,0.00,WeatherDisplay:10.34,2013-04-07 18:38:00,
2013-04-07 14:43:00,47.8,15.4,30.23,SW,219,8.0,16.0,27,0.00,BKN,BKN,0.00,WeatherDisplay:10.34,2013-04-07 18:43:00,
2013-04-07 14:49:00,48.2,15.7,30.23,SSW,202,7.0,12.0,27,0.00,BKN,BKN,0.00,WeatherDisplay:10.34,2013-04-07 18:49:00,
2013-04-07 14:55:00,48.4,15.9,30.23,SSE,156,13.0,16.0,27,0.00,BKN,BKN,0.00,WeatherDisplay:10.34,2013-04-07 18:55:00,
2013-04-07 15:00:00,48.4,15.9,30.23,West,273,5.0,9.0,27,0.00,BKN,BKN,0.00,WeatherDisplay:10.34,2013-04-07 19:00:00,
2013-04-07 15:05:00,48.6,16.0,30.20,South,178,5.0,7.0,27,0.00,CLR,CLR,0.00,WeatherDisplay:10.34,2013-04-07 19:05:00,
2013-04-07 15:10:00,48.7,16.2,30.20,WSW,248,4.0,8.0,27,0.00,CLR,CLR,0.00,WeatherDisplay:10.34,2013-04-07 19:10:00,
2013-04-07 15:15:00,48.7,16.2,30.20,SW,234,4.0,13.0,27,0.00,CLR,CLR,0.00,WeatherDisplay:10.34,2013-04-07 19:15:00,
2013-04-07 15:21:00,48.9,16.4,30.20,ESE,106,6.0,15.0,27,0.00,CLR,CLR,0.00,WeatherDisplay:10.34,2013-04-07 19:21:00,
2013-04-07 15:27:00,49.1,16.5,30.20,SW,226,7.0,15.0,27,0.00,CLR,CLR,0.00,WeatherDisplay:10.34,2013-04-07 19:27:00,
2013-04-07 15:33:00,49.5,16.8,30.17,South,184,0.0,3.0,27,0.00,CLR,CLR,0.00,WeatherDisplay:10.34,2013-04-07 19:33:00,
2013-04-07 15:38:00,49.6,17.0,30.17,SSE,147,7.0,12.0,27,0.00,CLR,CLR,0.00,WeatherDisplay:10.34,2013-04-07 19:38:00,
2013-04-07 15:43:00,49.8,17.1,30.17,WSW,252,9.0,17.0,27,0.00,CLR,CLR,0.00,WeatherDisplay:10.34,2013-04-07 19:43:00,
2013-04-07 15:48:00,50.0,17.3,30.17,SSW,197,7.0,10.0,27,0.00,CLR,CLR,0.00,WeatherDisplay:10.34,2013-04-07 19:48:00,
2013-04-07 15:53:00,50.2,17.4,30.17,SW,235,6.0,13.0,27,0.00,CLR,CLR,0.00,WeatherDisplay:10.34,2013-04-07 19:53:00,
2013-04-07 15:58:00,50.0,17.3,30.17,South,179,5.0,7.0,27,0.00,CLR,CLR,0.00,WeatherDisplay:10.34,2013-04-07 19:58:00,
2013-04-07 16:03:00,50.0,16.4,30.14,WNW,293,6.0,14.0,26,0.00,CLR,CLR,0.00,WeatherDisplay:10.34,2013-04-07 20:03:00,
2013-04-07 16:08:00,49.8,16.3,30.14,ESE,121,8.0,15.0,26,0.00,CLR,CLR,0.00,WeatherDisplay:10.34,2013-04-07 20:08:00,
2013-04-07 16:13:00,49.8,16.3,30.14,South,181,7.0,14.0,26,0.00,CLR,CLR,0.00,WeatherDisplay:10.34,2013-04-07 20:13:00,
2013-04-07 16:18:00,49.8,16.3,30.14,South,178,4.0,9.0,26,0.00,CLR,CLR,0.00,WeatherDisplay:10.34,2013-04-07 20:18:00,
2013-04-07 16:23:00,49.6,16.1,30.14,WNW,294,4.0,12.0,26,0.00,CLR,CLR,0.00,WeatherDisplay:10.34,2013-04-07 20:23:00,
2013-04-07 16:28:00,49.6,17.0,30.14,WSW,237,4.0,8.0,27,0.00,CLR,CLR,0.00,WeatherDisplay:10.34,2013-04-07 20:28:00,
2013-04-07 16:33:00,49.5,16.8,30.14,WSW,238,5.0,14.0,27,0.00,CLR,CLR,0.00,WeatherDisplay:10.34,2013-04-07 20:33:00,
2013-04-07 16:38:00,49.6,17.0,30.14,South,174,5.0,10.0,27,0.00,CLR,CLR,0.00,WeatherDisplay:10.34,2013-04-07 20:38:00,
2013-04-07 16:43:00,49.6,17.0,30.14,SW,214,5.0,12.0,27,0.00,CLR,CLR,0.00,WeatherDisplay:10.34,2013-04-07 20:43:00,
2013-04-07 16:48:00,49.6,17.0,30.14,SW,224,4.0,6.0,27,0.00,CLR,CLR,0.00,WeatherDisplay:10.34,2013-04-07 20:48:00,
2013-04-07 16:53:00,49.6,17.0,30.14,SE,135,3.0,9.0,27,0.00,CLR,CLR,0.00,WeatherDisplay:10.34,2013-04-07 20:53:00,
2013-04-07 16:59:00,49.8,17.1,30.14,WSW,250,8.0,23.0,27,0.00,CLR,CLR,0.00,WeatherDisplay:10.34,2013-04-07 20:59:00,
2013-04-07 17:04:00,50.4,17.6,30.13,WSW,249,5.0,7.0,27,0.00,CLR,CLR,0.00,WeatherDisplay:10.34,2013-04-07 21:04:00,
2013-04-07 17:09:00,50.7,17.9,30.13,SSW,204,5.0,9.0,27,0.00,CLR,CLR,0.00,WeatherDisplay:10.34,2013-04-07 21:09:00,
2013-04-07 17:14:00,50.9,18.1,30.13,WSW,249,9.0,16.0,27,0.00,CLR,CLR,0.00,WeatherDisplay:10.34,2013-04-07 21:14:00,
2013-04-07 17:19:00,50.9,18.1,30.13,SSE,161,12.0,25.0,27,0.00,CLR,CLR,0.00,WeatherDisplay:10.34,2013-04-07 21:19:00,
2013-04-07 17:24:00,50.7,17.9,30.13,SSW,208,6.0,22.0,27,0.00,CLR,CLR,0.00,WeatherDisplay:10.34,2013-04-07 21:24:00,
2013-04-07 17:30:00,50.4,18.4,30.13,WSW,249,7.0,13.0,28,0.00,CLR,CLR,0.00,WeatherDisplay:10.34,2013-04-07 21:30:00,
2013-04-07 17:35:00,50.4,18.4,30.13,SSW,206,10.0,18.0,28,0.00,CLR,CLR,0.00,WeatherDisplay:10.34,2013-04-07 21:35:00,
2013-04-07 17:40:00,50.2,18.3,30.13,WSW,246,6.0,12.0,28,0.00,CLR,CLR,0.00,WeatherDisplay:10.34,2013-04-07 21:40:00,
2013-04-07 17:45:00,50.2,18.3,30.13,North,351,4.0,7.0,28,0.00,CLR,CLR,0.00,WeatherDisplay:10.34,2013-04-07 21:45:00,
2013-04-07 17:50:00,50.0,18.1,30.13,NW,307,4.0,8.0,28,0.00,CLR,CLR,0.00,WeatherDisplay:10.34,2013-04-07 21:50:00,
2013-04-07 17:55:00,49.6,17.8,30.13,WSW,252,5.0,12.0,28,0.00,CLR,CLR,0.00,WeatherDisplay:10.34,2013-04-07 21:55:00,
2013-04-07 18:00:00,49.5,17.7,30.13,NNW,334,4.0,7.0,28,0.00,CLR,CLR,0.00,WeatherDisplay:10.34,2013-04-07 22:00:00,
2013-04-07 18:06:00,49.1,18.2,30.13,South,169,4.0,9.0,29,0.00,FEW,FEW,0.00,WeatherDisplay:10.34,2013-04-07 22:06:00,
2013-04-07 18:11:00,48.9,18.0,30.13,West,271,4.0,5.0,29,0.00,FEW,FEW,0.00,WeatherDisplay:10.34,2013-04-07 22:11:00,
2013-04-07 18:16:00,48.7,18.6,30.14,SSW,207,5.0,9.0,30,0.00,FEW,FEW,0.00,WeatherDisplay:10.34,2013-04-07 22:16:00,
2013-04-07 18:22:00,48.6,18.5,30.14,WSW,253,4.0,8.0,30,0.00,FEW,FEW,0.00,WeatherDisplay:10.34,2013-04-07 22:22:00,
2013-04-07 18:27:00,48.4,18.3,30.14,South,170,7.0,9.0,30,0.00,FEW,FEW,0.00,WeatherDisplay:10.34,2013-04-07 22:27:00,
2013-04-07 18:32:00,48.2,18.2,30.14,WNW,284,3.0,9.0,30,0.00,FEW,FEW,0.00,WeatherDisplay:10.34,2013-04-07 22:32:00,
2013-04-07 18:37:00,48.0,18.8,30.14,SSW,195,3.0,5.0,31,0.00,FEW,FEW,0.00,WeatherDisplay:10.34,2013-04-07 22:37:00,
2013-04-07 18:43:00,47.8,18.6,30.14,WSW,255,3.0,8.0,31,0.00,FEW,FEW,0.00,WeatherDisplay:10.34,2013-04-07 22:43:00,
2013-04-07 18:48:00,47.7,18.5,30.14,WSW,252,9.0,17.0,31,0.00,FEW,FEW,0.00,WeatherDisplay:10.34,2013-04-07 22:48:00,
2013-04-07 18:54:00,47.5,19.0,30.14,South,186,3.0,7.0,32,0.00,FEW,FEW,0.00,WeatherDisplay:10.34,2013-04-07 22:54:00,
2013-04-07 18:59:00,47.5,19.0,30.14,NNW,344,12.0,20.0,32,0.00,FEW,FEW,0.00,WeatherDisplay:10.34,2013-04-07 22:59:00,
2013-04-07 19:04:00,47.5,19.8,30.14,SW,235,4.0,7.0,33,0.00,BKN,BKN,0.00,WeatherDisplay:10.34,2013-04-07 23:04:00,
2013-04-07 19:09:00,47.3,19.6,30.14,SW,220,9.0,21.0,33,0.00,BKN,BKN,0.00,WeatherDisplay:10.34,2013-04-07 23:09:00,
2013-04-07 19:14:00,47.1,20.2,30.14,WSW,239,5.0,9.0,34,0.00,BKN,BKN,0.00,WeatherDisplay:10.34,2013-04-07 23:14:00,
2013-04-07 19:19:00,46.9,20.0,30.14,WSW,251,14.0,28.0,34,0.00,BKN,BKN,0.00,WeatherDisplay:10.34,2013-04-07 23:19:00,
2013-04-07 19:24:00,46.9,20.7,30.14,WSW,249,13.0,20.0,35,0.00,BKN,BKN,0.00,WeatherDisplay:10.34,2013-04-07 23:24:00,
2013-04-07 19:29:00,46.8,21.2,30.14,SSW,201,10.0,24.0,36,0.00,BKN,BKN,0.00,WeatherDisplay:10.34,2013-04-07 23:29:00,
2013-04-07 19:35:00,46.4,21.5,30.14,West,260,6.0,20.0,37,0.00,BKN,BKN,0.00,WeatherDisplay:10.34,2013-04-07 23:35:00,
2013-04-07 19:40:00,46.4,21.5,30.14,WSW,238,13.0,23.0,37,0.00,BKN,BKN,0.00,WeatherDisplay:10.34,2013-04-07 23:40:00,
2013-04-07 19:45:00,46.0,21.2,30.14,West,266,0.0,12.0,37,0.00,BKN,BKN,0.00,WeatherDisplay:10.34,2013-04-07 23:45:00,
2013-04-07 19:50:00,45.9,21.0,30.14,WNW,294,3.0,6.0,37,0.00,BKN,BKN,0.00,WeatherDisplay:10.34,2013-04-07 23:50:00,
2013-04-07 19:55:00,45.3,21.2,30.14,SW,233,6.0,10.0,38,0.00,BKN,BKN,0.00,WeatherDisplay:10.34,2013-04-07 23:55:00,
2013-04-07 20:00:00,45.0,20.8,30.14,SSW,208,4.0,13.0,38,0.00,BKN,BKN,0.00,WeatherDisplay:10.34,2013-04-08 00:00:00,
2013-04-07 20:05:00,44.6,21.1,30.14,West,279,10.0,16.0,39,0.00,CLR,CLR,0.00,WeatherDisplay:10.34,2013-04-08 00:05:00,
2013-04-07 20:12:00,44.6,21.1,30.14,SW,235,6.0,15.0,39,0.00,CLR,CLR,0.00,WeatherDisplay:10.34,2013-04-08 00:12:00,
2013-04-07 20:17:00,44.6,21.7,30.14,WSW,244,7.0,16.0,40,0.00,CLR,CLR,0.00,WeatherDisplay:10.34,2013-04-08 00:17:00,
2013-04-07 20:22:00,44.6,21.7,30.14,North,351,3.0,6.0,40,0.00,CLR,CLR,0.00,WeatherDisplay:10.34,2013-04-08 00:22:00,
2013-04-07 20:27:00,44.6,21.7,30.14,West,273,5.0,9.0,40,0.00,CLR,CLR,0.00,WeatherDisplay:10.34,2013-04-08 00:27:00,
2013-04-07 20:33:00,44.6,21.7,30.14,WNW,296,7.0,12.0,40,0.00,CLR,CLR,0.00,WeatherDisplay:10.34,2013-04-08 00:33:00,
2013-04-07 20:38:00,44.4,21.6,30.14,West,274,4.0,8.0,40,0.00,CLR,CLR,0.00,WeatherDisplay:10.34,2013-04-08 00:38:00,
2013-04-07 20:44:00,44.2,21.4,30.14,West,261,8.0,16.0,40,0.00,CLR,CLR,0.00,WeatherDisplay:10.34,2013-04-08 00:44:00,
2013-04-07 20:50:00,44.1,21.8,30.14,South,186,11.0,21.0,41,0.00,CLR,CLR,0.00,WeatherDisplay:10.34,2013-04-08 00:50:00,
2013-04-07 20:55:00,44.1,21.8,30.14,WSW,237,7.0,10.0,41,0.00,CLR,CLR,0.00,WeatherDisplay:10.34,2013-04-08 00:55:00,
2013-04-07 21:00:00,44.1,21.8,30.14,SSW,198,0.0,7.0,41,0.00,CLR,CLR,0.00,WeatherDisplay:10.34,2013-04-08 01:00:00,
2013-04-07 21:07:00,43.7,21.5,30.14,SSE,159,0.0,7.0,41,0.00,CLR,CLR,0.00,WeatherDisplay:10.34,2013-04-08 01:07:00,
2013-04-07 21:12:00,43.5,21.9,30.14,South,182,8.0,12.0,42,0.00,CLR,CLR,0.00,WeatherDisplay:10.34,2013-04-08 01:12:00,
2013-04-07 21:17:00,43.3,21.8,30.14,West,270,9.0,16.0,42,0.00,CLR,CLR,0.00,WeatherDisplay:10.34,2013-04-08 01:17:00,
2013-04-07 21:22:00,43.2,21.6,30.13,West,276,3.0,7.0,42,0.00,CLR,CLR,0.00,WeatherDisplay:10.34,2013-04-08 01:22:00,
2013-04-07 21:27:00,43.0,21.4,30.13,West,278,0.0,0.0,42,0.00,CLR,CLR,0.00,WeatherDisplay:10.34,2013-04-08 01:27:00,
2013-04-07 21:32:00,42.8,21.3,30.13,West,278,0.0,0.0,42,0.00,CLR,CLR,0.00,WeatherDisplay:10.34,2013-04-08 01:32:00,
2013-04-07 21:38:00,42.3,20.8,30.13,WSW,255,0.0,5.0,42,0.00,CLR,CLR,0.00,WeatherDisplay:10.34,2013-04-08 01:38:00,
2013-04-07 21:43:00,42.1,21.2,30.13,SSE,163,4.0,9.0,43,0.00,CLR,CLR,0.00,WeatherDisplay:10.34,2013-04-08 01:43:00,
2013-04-07 21:48:00,41.7,21.4,30.13,WSW,255,0.0,3.0,44,0.00,CLR,CLR,0.00,WeatherDisplay:10.34,2013-04-08 01:48:00,
2013-04-07 21:53:00,41.7,21.9,30.13,SW,232,5.0,9.0,45,0.00,CLR,CLR,0.00,WeatherDisplay:10.34,2013-04-08 01:53:00,
2013-04-07 21:58:00,42.1,22.2,30.13,SSW,210,0.0,12.0,45,0.00,CLR,CLR,0.00,WeatherDisplay:10.34,2013-04-08 01:58:00,
2013-04-07 22:03:00,42.3,22.4,30.13,SSW,209,0.0,3.0,45,0.00,CLR,CLR,0.00,WeatherDisplay:10.34,2013-04-08 02:03:00,
2013-04-07 22:08:00,42.1,21.7,30.13,SW,230,5.0,9.0,44,0.00,CLR,CLR,0.00,WeatherDisplay:10.34,2013-04-08 02:08:00,
2013-04-07 22:13:00,42.1,21.7,30.13,SW,230,0.0,3.0,44,0.00,CLR,CLR,0.00,WeatherDisplay:10.34,2013-04-08 02:13:00,
2013-04-07 22:18:00,41.7,21.4,30.13,WSW,257,3.0,5.0,44,0.00,CLR,CLR,0.00,WeatherDisplay:10.34,2013-04-08 02:18:00,
2013-04-07 22:23:00,41.5,21.8,30.13,WNW,283,4.0,8.0,45,0.00,CLR,CLR,0.00,WeatherDisplay:10.34,2013-04-08 02:23:00,
2013-04-07 22:28:00,41.5,21.8,30.13,WNW,286,0.0,3.0,45,0.00,CLR,CLR,0.00,WeatherDisplay:10.34,2013-04-08 02:28:00,
2013-04-07 22:33:00,41.7,22.9,30.13,West,266,4.0,12.0,47,0.00,CLR,CLR,0.00,WeatherDisplay:10.34,2013-04-08 02:33:00,
2013-04-07 22:38:00,41.9,23.1,30.13,North,351,3.0,6.0,47,0.00,CLR,CLR,0.00,WeatherDisplay:10.34,2013-04-08 02:38:00,
2013-04-07 22:43:00,41.9,23.1,30.13,WSW,241,3.0,8.0,47,0.00,CLR,CLR,0.00,WeatherDisplay:10.34,2013-04-08 02:43:00,
2013-04-07 22:48:00,42.1,23.3,30.13,North,351,4.0,9.0,47,0.00,CLR,CLR,0.00,WeatherDisplay:10.34,2013-04-08 02:48:00,
2013-04-07 22:54:00,42.1,23.3,30.13,South,189,5.0,10.0,47,0.00,CLR,CLR,0.00,WeatherDisplay:10.34,2013-04-08 02:54:00,
2013-04-07 22:59:00,42.1,23.8,30.13,WSW,246,5.0,7.0,48,0.00,CLR,CLR,0.00,WeatherDisplay:10.34,2013-04-08 02:59:00,
2013-04-07 23:05:00,42.1,23.3,30.10,SW,222,3.0,5.0,47,0.00,BKN,BKN,0.00,WeatherDisplay:10.34,2013-04-08 03:05:00,
2013-04-07 23:10:00,42.1,23.8,30.10,SW,230,7.0,14.0,48,0.00,BKN,BKN,0.00,WeatherDisplay:10.34,2013-04-08 03:10:00,
2013-04-07 23:16:00,41.7,23.5,30.10,West,263,0.0,7.0,48,0.00,BKN,BKN,0.00,WeatherDisplay:10.34,2013-04-08 03:16:00,
2013-04-07 23:21:00,41.5,23.3,30.10,SW,222,4.0,7.0,48,0.00,BKN,BKN,0.00,WeatherDisplay:10.34,2013-04-08 03:21:00,
2013-04-07 23:26:00,41.4,23.1,30.10,WNW,294,0.0,0.0,48,0.00,BKN,BKN,0.00,WeatherDisplay:10.34,2013-04-08 03:26:00,
2013-04-07 23:32:00,41.2,23.0,30.10,West,264,0.0,9.0,48,0.00,BKN,BKN,0.00,WeatherDisplay:10.34,2013-04-08 03:32:00,
2013-04-07 23:37:00,41.0,22.8,30.10,West,264,0.0,3.0,48,0.00,BKN,BKN,0.00,WeatherDisplay:10.34,2013-04-08 03:37:00,
2013-04-07 23:42:00,41.0,23.3,30.10,West,270,4.0,7.0,49,0.00,BKN,BKN,0.00,WeatherDisplay:10.34,2013-04-08 03:42:00,
2013-04-07 23:48:00,40.6,23.4,30.10,South,182,0.0,5.0,50,0.00,BKN,BKN,0.00,WeatherDisplay:10.34,2013-04-08 03:48:00,
2013-04-07 23:53:00,40.5,23.7,30.10,SSW,212,6.0,8.0,51,0.00,BKN,BKN,0.00,WeatherDisplay:10.34,2013-04-08 03:53:00,
2013-04-07 23:58:00,40.6,24.8,30.10,SW,223,0.0,3.0,53,0.00,BKN,BKN,0.00,WeatherDisplay:10.34,2013-04-08 03:58:00,